createdAt,value
2023-04-11T00:01:55.196Z,6.07
2023-04-11T00:04:25.632Z,5.23
2023-04-11T00:06:52.931Z,5.30
2023-04-11T00:09:20.051Z,4.97
2023-04-11T00:11:48.175Z,5.00
2023-04-11T00:14:15.306Z,4.50
2023-04-11T00:16:42.613Z,4.63
2023-04-11T00:19:09.798Z,4.93
2023-04-11T00:21:40.514Z,4.50
2023-04-11T00:24:08.684Z,5.13
2023-04-11T00:26:35.911Z,4.83
2023-04-11T00:29:02.990Z,4.57
2023-04-11T00:31:30.009Z,4.30
2023-04-11T00:33:57.126Z,5.47
2023-04-11T00:36:24.344Z,4.77
2023-04-11T00:38:51.272Z,5.57
2023-04-11T00:41:19.091Z,4.47
2023-04-11T00:43:47.219Z,5.23
2023-04-11T00:46:17.167Z,4.70
2023-04-11T00:48:44.835Z,4.50
2023-04-11T00:51:11.911Z,5.80
2023-04-11T00:53:38.870Z,4.97
2023-04-11T00:56:06.907Z,4.80
2023-04-11T00:58:34.577Z,4.60
2023-04-11T01:01:02.073Z,4.87
2023-04-11T01:03:30.250Z,5.13
2023-04-11T01:05:57.590Z,5.47
2023-04-11T01:08:25.407Z,4.40
2023-04-11T01:10:52.791Z,5.13
2023-04-11T01:13:20.460Z,4.77
2023-04-11T01:15:47.518Z,4.47
2023-04-11T01:18:15.552Z,4.70
2023-04-11T01:20:42.760Z,4.27
2023-04-11T01:23:10.994Z,4.93
2023-04-11T01:25:37.966Z,4.30
2023-04-11T01:28:06.358Z,5.23
2023-04-11T01:30:33.376Z,4.43
2023-04-11T01:33:00.677Z,5.70
2023-04-11T01:35:27.746Z,4.07
2023-04-11T01:37:55.098Z,3.97
2023-04-11T01:40:24.048Z,4.67
2023-04-11T01:42:52.155Z,4.10
2023-04-11T01:45:20.968Z,4.87
2023-04-11T01:47:49.626Z,4.63
2023-04-11T01:50:17.914Z,4.70
2023-04-11T01:52:44.830Z,4.60
2023-04-11T01:55:11.891Z,4.90
2023-04-11T01:57:38.778Z,4.47
2023-04-11T02:00:08.898Z,4.10
2023-04-11T02:02:38.944Z,4.73
2023-04-11T02:05:06.445Z,4.97
2023-04-11T02:07:33.529Z,4.77
2023-04-11T02:10:00.716Z,4.83
2023-04-11T02:12:27.648Z,4.53
2023-04-11T02:14:54.579Z,4.83
2023-04-11T02:17:25.921Z,3.40
2023-04-11T02:19:53.221Z,4.77
2023-04-11T02:22:20.213Z,3.93
2023-04-11T02:24:47.674Z,4.57
2023-04-11T02:27:14.740Z,5.23
2023-04-11T02:29:41.748Z,4.17
2023-04-11T02:32:08.920Z,4.60
2023-04-11T02:34:35.981Z,3.70
2023-04-11T02:37:02.947Z,4.30
2023-04-11T02:39:30.036Z,3.93
2023-04-11T02:41:57.370Z,3.90
2023-04-11T02:44:26.301Z,3.70
2023-04-11T02:46:53.520Z,3.90
2023-04-11T02:49:20.524Z,4.37
2023-04-11T02:51:47.953Z,4.20
2023-04-11T02:54:15.001Z,4.20
2023-04-11T02:56:43.362Z,3.70
2023-04-11T02:59:12.410Z,4.43
2023-04-11T03:01:39.478Z,5.37
2023-04-11T03:04:07.317Z,3.57
2023-04-11T03:06:36.014Z,4.67
2023-04-11T03:09:04.004Z,4.63
2023-04-11T03:11:31.000Z,5.03
2023-04-11T03:13:57.984Z,5.40
2023-04-11T03:16:25.700Z,3.87
2023-04-11T03:18:52.849Z,4.20
2023-04-11T03:21:20.007Z,4.37
2023-04-11T03:23:47.044Z,4.73
2023-04-11T03:26:14.432Z,4.23
2023-04-11T03:28:41.444Z,3.53
2023-04-11T03:31:08.528Z,4.40
2023-04-11T03:33:35.592Z,4.33
2023-04-11T03:36:02.649Z,4.17
2023-04-11T03:38:29.904Z,3.70
2023-04-11T03:40:56.920Z,4.10
2023-04-11T03:43:23.970Z,3.77
2023-04-11T03:45:51.927Z,3.73
2023-04-11T03:48:20.327Z,3.70
2023-04-11T03:50:47.735Z,4.03
2023-04-11T03:53:14.787Z,3.73
2023-04-11T03:55:41.724Z,4.17
2023-04-11T03:58:08.665Z,3.60
2023-04-11T04:00:36.430Z,3.30
2023-04-11T04:03:04.006Z,4.20
2023-04-11T04:05:31.153Z,3.43
2023-04-11T04:07:58.171Z,3.57
2023-04-11T04:10:25.264Z,4.23
2023-04-11T04:12:53.528Z,3.73
2023-04-11T04:15:21.464Z,4.43
2023-04-11T04:17:49.594Z,4.73
2023-04-11T04:20:16.689Z,4.77
2023-04-11T04:22:47.515Z,4.00
2023-04-11T04:25:15.902Z,3.90
2023-04-11T04:27:44.479Z,4.23
2023-04-11T04:30:15.493Z,3.57
2023-04-11T04:32:46.163Z,4.03
2023-04-11T04:35:16.815Z,3.50
2023-04-11T04:37:46.614Z,4.07
2023-04-11T04:40:14.103Z,3.47
2023-04-11T04:42:42.179Z,4.67
2023-04-11T04:45:10.712Z,4.23
2023-04-11T04:47:38.508Z,4.53
2023-04-11T04:50:06.419Z,4.20
2023-04-11T04:52:33.389Z,4.50
2023-04-11T04:55:01.306Z,4.83
2023-04-11T04:57:29.603Z,3.97
2023-04-11T04:59:58.759Z,4.03
2023-04-11T05:02:26.978Z,4.83
2023-04-11T05:04:54.852Z,4.43
2023-04-11T05:07:21.868Z,3.97
2023-04-11T05:09:49.023Z,4.27
2023-04-11T05:12:18.052Z,3.83
2023-04-11T05:14:45.028Z,3.60
2023-04-11T05:17:12.049Z,3.90
2023-04-11T05:19:39.016Z,3.70
2023-04-11T05:22:06.011Z,4.17
2023-04-11T05:24:32.940Z,6.97
2023-04-11T05:27:00.639Z,5.30
2023-04-11T05:29:27.603Z,4.00
2023-04-11T05:31:54.508Z,3.90
2023-04-11T05:34:21.512Z,4.30
2023-04-11T05:36:48.464Z,4.23
2023-04-11T05:39:15.770Z,4.03
2023-04-11T05:41:43.300Z,3.87
2023-04-11T05:44:10.262Z,4.00
2023-04-11T05:46:38.419Z,4.73
2023-04-11T05:49:05.798Z,4.03
2023-04-11T05:51:32.809Z,4.00
2023-04-11T05:53:59.783Z,5.67
2023-04-11T05:56:26.730Z,4.17
2023-04-11T05:58:53.921Z,4.47
2023-04-11T06:01:20.933Z,4.17
2023-04-11T06:03:48.643Z,4.10
2023-04-11T06:06:15.868Z,4.60
2023-04-11T06:08:43.014Z,4.27
2023-04-11T06:11:11.387Z,4.53
2023-04-11T06:13:38.291Z,4.07
2023-04-11T06:16:06.831Z,4.13
2023-04-11T06:18:34.041Z,4.03
2023-04-11T06:21:01.183Z,4.07
2023-04-11T06:23:28.218Z,3.60
2023-04-11T06:25:55.643Z,4.00
2023-04-11T06:28:22.595Z,4.07
2023-04-11T06:30:52.210Z,4.87
2023-04-11T06:33:19.209Z,3.77
2023-04-11T06:35:46.300Z,3.50
2023-04-11T06:38:13.294Z,3.40
2023-04-11T06:40:40.386Z,3.97
2023-04-11T06:43:07.304Z,3.33
2023-04-11T06:45:34.333Z,3.07
2023-04-11T06:48:01.341Z,3.40
2023-04-11T06:50:28.275Z,3.40
2023-04-11T06:52:58.348Z,3.27
2023-04-11T06:55:25.862Z,3.47
2023-04-11T06:57:52.747Z,3.30
2023-04-11T07:00:21.075Z,4.13
2023-04-11T07:02:48.306Z,2.90
2023-04-11T07:05:17.541Z,3.03
2023-04-11T07:07:44.558Z,3.43
2023-04-11T07:10:11.613Z,2.90
2023-04-11T07:12:38.543Z,3.40
2023-04-11T07:15:08.595Z,2.80
2023-04-11T07:17:35.826Z,3.20
2023-04-11T07:20:06.637Z,3.20
2023-04-11T07:22:33.773Z,2.80
2023-04-11T07:25:00.726Z,3.33
2023-04-11T07:27:27.832Z,3.77
2023-04-11T07:29:54.752Z,2.80
2023-04-11T07:32:22.898Z,3.20
2023-04-11T07:34:49.910Z,2.93
2023-04-11T07:37:16.819Z,3.07
2023-04-11T07:39:44.713Z,3.60
2023-04-11T07:42:12.117Z,2.77
2023-04-11T07:44:39.050Z,3.00
2023-04-11T07:47:05.987Z,2.67
2023-04-11T07:49:33.990Z,2.73
2023-04-11T07:52:01.740Z,2.53
2023-04-11T07:54:30.353Z,3.47
2023-04-11T07:56:57.297Z,2.83
2023-04-11T07:59:24.191Z,2.10
2023-04-11T08:02:00.455Z,2.40
2023-04-11T08:04:33.579Z,2.47
2023-04-11T08:07:00.664Z,3.50
2023-04-11T08:09:27.797Z,2.30
2023-04-11T08:11:56.827Z,2.80
2023-04-11T08:14:24.121Z,2.43
2023-04-11T08:16:53.269Z,2.50
2023-04-11T08:19:21.172Z,3.27
2023-04-11T08:21:48.382Z,2.87
2023-04-11T08:24:15.301Z,2.70
2023-04-11T08:26:43.288Z,2.80
2023-04-11T08:29:12.861Z,3.20
2023-04-11T08:31:46.657Z,2.83
2023-04-11T08:34:13.833Z,3.40
2023-04-11T08:36:41.722Z,2.10
2023-04-11T08:39:09.028Z,2.97
2023-04-11T08:41:38.340Z,2.83
2023-04-11T08:44:05.723Z,2.27
2023-04-11T08:46:33.911Z,2.73
2023-04-11T08:49:01.416Z,2.28
2023-04-11T08:51:28.352Z,2.50
2023-04-11T08:54:00.534Z,2.77
2023-04-11T08:56:28.555Z,3.50
2023-04-11T08:58:55.607Z,3.40
2023-04-11T09:01:34.159Z,2.40
2023-04-11T09:04:05.052Z,3.03
2023-04-11T09:06:33.859Z,2.87
2023-04-11T09:09:06.555Z,2.70
2023-04-11T09:11:54.776Z,2.50
2023-04-11T09:14:26.784Z,3.17
2023-04-11T09:17:06.121Z,3.37
2023-04-11T09:19:35.066Z,2.80
2023-04-11T09:22:06.148Z,3.20
2023-04-11T09:24:35.405Z,2.90
2023-04-11T09:27:13.144Z,2.70
2023-04-11T09:29:48.150Z,2.73
2023-04-11T09:32:35.102Z,2.90
2023-04-11T09:35:15.812Z,2.10
2023-04-11T09:37:51.049Z,2.40
2023-04-11T09:40:22.722Z,2.50
2023-04-11T09:42:59.745Z,2.70
2023-04-11T09:45:28.616Z,2.67
2023-04-11T09:47:58.292Z,2.83
2023-04-11T09:50:27.337Z,2.30
2023-04-11T09:52:59.443Z,2.00
2023-04-11T09:55:27.036Z,2.00
2023-04-11T09:57:55.191Z,2.60
2023-04-11T10:00:30.186Z,2.13
2023-04-11T10:02:57.490Z,2.35
2023-04-11T10:05:30.494Z,2.33
2023-04-11T10:08:06.398Z,2.30
2023-04-11T10:10:34.136Z,2.50
2023-04-11T10:13:01.215Z,2.10
2023-04-11T10:15:29.067Z,2.25
2023-04-11T10:18:09.918Z,2.30
2023-04-11T10:20:40.439Z,2.33
2023-04-11T10:23:07.625Z,2.38
2023-04-11T10:25:50.567Z,2.33
2023-04-11T10:28:39.018Z,1.77
2023-04-11T10:31:14.058Z,2.38
2023-04-11T10:34:17.027Z,2.08
2023-04-11T10:37:08.334Z,1.80
2023-04-11T10:39:50.860Z,1.95
2023-04-11T10:42:31.737Z,2.67
2023-04-11T10:45:18.013Z,2.27
2023-04-11T10:48:08.121Z,2.40
2023-04-11T10:50:40.049Z,2.40
2023-04-11T10:53:14.303Z,2.30
2023-04-11T10:55:47.210Z,2.13
2023-04-11T10:58:19.722Z,2.13
2023-04-11T11:00:49.816Z,2.50
2023-04-11T11:03:28.121Z,2.30
2023-04-11T11:06:06.289Z,1.80
2023-04-11T11:08:41.919Z,2.03
2023-04-11T11:11:11.279Z,2.38
2023-04-11T11:13:42.070Z,2.08
2023-04-11T11:16:47.826Z,2.10
2023-04-11T11:19:14.938Z,2.20
2023-04-11T11:21:42.471Z,2.10
2023-04-11T11:24:09.627Z,2.20
2023-04-11T11:26:41.547Z,1.80
2023-04-11T11:29:10.449Z,1.67
2023-04-11T11:31:42.872Z,1.70
2023-04-11T11:36:45.280Z,2.17
2023-04-11T11:39:13.094Z,1.88
2023-04-11T11:41:41.423Z,2.17
2023-04-11T11:44:29.199Z,1.85
2023-04-11T11:47:12.701Z,1.90
2023-04-11T11:49:56.648Z,2.00
2023-04-11T11:52:40.959Z,1.98
2023-04-11T11:55:29.288Z,1.90
2023-04-11T11:58:02.112Z,2.08
2023-04-11T12:00:32.528Z,1.75
2023-04-11T12:03:02.931Z,2.20
2023-04-11T12:05:32.906Z,2.17
2023-04-11T12:08:06.418Z,1.60
2023-04-11T12:10:51.619Z,1.88
2023-04-11T12:13:25.417Z,1.83
2023-04-11T12:15:57.865Z,1.65
2023-04-11T12:18:27.440Z,2.00
2023-04-11T12:20:55.427Z,1.52
2023-04-11T12:23:23.038Z,1.38
2023-04-11T12:25:50.527Z,1.63
2023-04-11T12:28:17.488Z,1.70
2023-04-11T12:30:44.470Z,1.48
2023-04-11T12:33:11.383Z,1.48
2023-04-11T12:35:38.274Z,1.58
2023-04-11T12:38:07.833Z,1.50
2023-04-11T12:40:34.782Z,1.85
2023-04-11T12:43:01.670Z,1.80
2023-04-11T12:45:28.846Z,1.92
2023-04-11T12:47:55.858Z,1.35
2023-04-11T12:50:25.850Z,1.60
2023-04-11T12:52:53.180Z,1.55
2023-04-11T12:55:20.176Z,1.77
2023-04-11T12:57:47.116Z,1.60
2023-04-11T13:00:15.261Z,1.90
2023-04-11T13:02:44.989Z,1.45
2023-04-11T13:05:16.674Z,1.60
2023-04-11T13:07:46.288Z,1.65
2023-04-11T13:10:15.844Z,1.63
2023-04-11T13:12:45.036Z,1.55
2023-04-11T13:15:15.353Z,2.05
2023-04-11T13:17:43.114Z,1.85
2023-04-11T13:20:11.234Z,1.55
2023-04-11T13:22:42.302Z,1.80
2023-04-11T13:25:10.714Z,1.60
2023-04-11T13:27:39.750Z,1.45
2023-04-11T13:30:08.452Z,1.70
2023-04-11T13:32:35.696Z,1.40
2023-04-11T13:35:03.885Z,1.50
2023-04-11T13:37:30.824Z,1.40
2023-04-11T13:39:57.717Z,2.13
2023-04-11T13:42:24.705Z,1.55
2023-04-11T13:44:51.657Z,1.95
2023-04-11T13:47:18.610Z,1.70
2023-04-11T13:49:45.647Z,1.48
2023-04-11T13:52:12.556Z,1.65
2023-04-11T13:54:39.578Z,2.05
2023-04-11T13:57:09.472Z,1.80
2023-04-11T13:59:36.611Z,1.67
2023-04-11T14:02:03.626Z,2.10
2023-04-11T14:04:31.438Z,1.73
2023-04-11T14:06:58.496Z,1.45
2023-04-11T14:09:25.570Z,1.90
2023-04-11T14:11:52.600Z,1.45
2023-04-11T14:14:19.558Z,2.30
2023-04-11T14:16:46.546Z,1.70
2023-04-11T14:19:13.551Z,2.00
2023-04-11T14:21:40.616Z,1.58
2023-04-11T14:24:08.594Z,2.47
2023-04-11T14:26:35.617Z,1.80
2023-04-11T14:29:02.862Z,1.38
2023-04-11T14:31:30.378Z,1.63
2023-04-11T14:33:57.672Z,1.50
2023-04-11T14:36:24.820Z,1.60
2023-04-11T14:38:51.733Z,1.80
2023-04-11T14:41:19.398Z,1.73
2023-04-11T14:43:46.365Z,1.40
2023-04-11T14:46:13.362Z,1.50
2023-04-11T14:48:40.508Z,1.50
2023-04-11T14:51:07.843Z,1.40
2023-04-11T14:53:34.869Z,1.20
2023-04-11T14:56:06.498Z,1.30
2023-04-11T14:58:34.096Z,1.50
2023-04-11T15:01:01.164Z,1.40
2023-04-11T15:03:28.481Z,1.50
2023-04-11T15:05:55.664Z,1.67
2023-04-11T15:08:23.812Z,1.30
2023-04-11T15:10:54.366Z,1.48
2023-04-11T15:13:22.624Z,1.27
2023-04-11T15:15:49.719Z,1.95
2023-04-11T15:18:24.726Z,1.50
2023-04-11T15:20:52.647Z,1.67
2023-04-11T15:23:20.693Z,1.70
2023-04-11T15:25:54.330Z,1.30
2023-04-11T15:28:21.856Z,2.33
2023-04-11T15:30:51.812Z,2.17
2023-04-11T15:33:21.025Z,1.50
2023-04-11T15:35:48.219Z,2.23
2023-04-11T15:38:15.610Z,1.97
2023-04-11T15:40:43.006Z,2.07
2023-04-11T15:43:10.270Z,1.73
2023-04-11T15:45:39.731Z,1.80
2023-04-11T15:48:06.990Z,2.00
2023-04-11T15:50:36.570Z,2.00
2023-04-11T15:53:03.449Z,1.90
2023-04-11T15:55:30.724Z,2.23
2023-04-11T15:57:57.682Z,1.63
2023-04-11T16:00:27.203Z,2.10
2023-04-11T16:02:54.799Z,2.00
2023-04-11T16:05:22.106Z,2.20
2023-04-11T16:07:50.199Z,2.57
2023-04-11T16:10:17.470Z,2.00
2023-04-11T16:12:44.570Z,2.20
2023-04-11T16:15:11.721Z,2.17
2023-04-11T16:17:39.379Z,2.20
2023-04-11T16:20:09.711Z,3.13
2023-04-11T16:22:39.657Z,1.90
2023-04-11T16:25:07.564Z,1.93
2023-04-11T16:27:34.888Z,1.90
2023-04-11T16:30:05.593Z,2.10
2023-04-11T16:32:33.393Z,1.90
2023-04-11T16:35:00.944Z,2.53
2023-04-11T16:37:28.508Z,1.97
2023-04-11T16:39:56.551Z,2.00
2023-04-11T16:42:23.738Z,1.77
2023-04-11T16:44:50.974Z,1.80
2023-04-11T16:47:18.852Z,1.87
2023-04-11T16:49:47.048Z,2.07
2023-04-11T16:52:14.480Z,1.87
2023-04-11T16:54:41.525Z,2.17
2023-04-11T16:57:11.567Z,2.50
2023-04-11T16:59:39.040Z,2.13
2023-04-11T17:02:06.071Z,2.50
2023-04-11T17:04:33.400Z,2.33
2023-04-11T17:07:02.560Z,2.83
2023-04-11T17:09:30.285Z,2.17
2023-04-11T17:11:57.844Z,2.70
2023-04-11T17:14:25.062Z,2.80
2023-04-11T17:16:52.210Z,2.43
2023-04-11T17:19:19.223Z,2.57
2023-04-11T17:21:46.612Z,2.80
2023-04-11T17:24:13.600Z,2.53
2023-04-11T17:26:40.538Z,1.97
2023-04-11T17:29:08.316Z,2.53
2023-04-11T17:31:35.368Z,1.97
2023-04-11T17:34:02.411Z,2.80
2023-04-11T17:36:31.006Z,2.33
2023-04-11T17:38:58.086Z,2.97
2023-04-11T17:41:25.081Z,2.27
2023-04-11T17:43:56.784Z,2.47
2023-04-11T17:46:24.100Z,2.30
2023-04-11T17:48:51.124Z,1.87
2023-04-11T17:51:20.573Z,1.77
2023-04-11T17:53:49.934Z,1.63
2023-04-11T17:56:16.977Z,1.93
2023-04-11T17:58:45.321Z,1.37
2023-04-11T18:01:12.794Z,1.33
2023-04-11T18:03:41.216Z,1.47
2023-04-11T18:06:08.833Z,1.43
2023-04-11T18:08:50.626Z,1.30
2023-04-11T18:11:19.502Z,2.07
2023-04-11T18:13:49.887Z,1.63
2023-04-11T18:16:17.765Z,1.50
2023-04-11T18:18:46.179Z,1.83
2023-04-11T18:21:13.334Z,1.53
2023-04-11T18:23:40.612Z,2.07
2023-04-11T18:26:07.640Z,1.93
2023-04-11T18:28:34.699Z,1.80
2023-04-11T18:31:01.984Z,1.60
2023-04-11T18:33:29.270Z,2.07
2023-04-11T18:35:56.528Z,2.03
2023-04-11T18:38:23.698Z,2.20
2023-04-11T18:40:54.994Z,2.80
2023-04-11T18:43:23.883Z,2.50
2023-04-11T18:45:50.987Z,2.57
2023-04-11T18:48:18.041Z,2.43
2023-04-11T18:50:48.467Z,2.90
2023-04-11T18:53:15.852Z,2.67
2023-04-11T18:55:42.849Z,2.80
2023-04-11T18:58:11.209Z,2.50
2023-04-11T19:00:40.859Z,2.37
2023-04-11T19:03:15.618Z,2.40
2023-04-11T19:05:44.129Z,3.47
2023-04-11T19:08:11.569Z,2.97
2023-04-11T19:10:38.649Z,2.30
2023-04-11T19:13:06.576Z,1.97
2023-04-11T19:15:33.684Z,1.57
2023-04-11T19:18:01.853Z,1.80
2023-04-11T19:20:29.765Z,2.13
2023-04-11T19:22:57.086Z,1.60
2023-04-11T19:25:24.313Z,1.33
2023-04-11T19:27:51.597Z,1.53
2023-04-11T19:30:18.557Z,1.77
2023-04-11T19:32:47.588Z,1.50
2023-04-11T19:35:15.694Z,1.83
2023-04-11T19:37:42.772Z,1.20
2023-04-11T19:40:16.686Z,1.43
2023-04-11T19:42:45.320Z,1.87
2023-04-11T19:45:12.411Z,1.60
2023-04-11T19:47:41.119Z,1.50
2023-04-11T19:50:15.095Z,1.90
2023-04-11T19:52:43.412Z,1.70
2023-04-11T19:55:12.153Z,2.00
2023-04-11T19:57:40.186Z,1.80
2023-04-11T20:00:13.578Z,2.30
2023-04-11T20:02:46.769Z,2.80
2023-04-11T20:05:16.468Z,2.83
2023-04-11T20:07:44.382Z,2.87
2023-04-11T20:10:13.396Z,2.90
2023-04-11T20:12:41.347Z,2.87
2023-04-11T20:15:09.417Z,2.30
2023-04-11T20:17:36.427Z,2.40
2023-04-11T20:20:06.598Z,2.13
2023-04-11T20:22:33.610Z,2.53
2023-04-11T20:25:00.624Z,2.20
2023-04-11T20:27:28.289Z,2.00
2023-04-11T20:29:56.663Z,2.23
2023-04-11T20:32:23.757Z,2.57
2023-04-11T20:34:50.889Z,2.00
2023-04-11T20:37:19.368Z,2.20
2023-04-11T20:39:46.378Z,2.27
2023-04-11T20:42:13.758Z,2.27
2023-04-11T20:44:42.577Z,2.50
2023-04-11T20:47:09.634Z,2.43
2023-04-11T20:49:36.575Z,2.50
2023-04-11T20:52:03.726Z,2.50
2023-04-11T20:54:30.742Z,2.70
2023-04-11T20:56:57.835Z,2.57
2023-04-11T20:59:24.808Z,3.43
2023-04-11T21:01:53.681Z,3.10
2023-04-11T21:04:22.422Z,3.13
2023-04-11T21:06:50.211Z,3.40
2023-04-11T21:09:17.627Z,3.07
2023-04-11T21:11:44.714Z,3.90
2023-04-11T21:14:11.626Z,3.20
2023-04-11T21:16:38.795Z,3.80
2023-04-11T21:19:06.000Z,3.17
2023-04-11T21:21:33.499Z,2.90
2023-04-11T21:24:01.412Z,2.83
2023-04-11T21:26:28.370Z,2.63
2023-04-11T21:28:55.995Z,3.17
2023-04-11T21:31:22.978Z,2.53
2023-04-11T21:33:49.949Z,2.67
2023-04-11T21:36:16.870Z,2.70
2023-04-11T21:38:43.830Z,2.30
2023-04-11T21:41:11.070Z,2.37
2023-04-11T21:43:37.999Z,2.87
2023-04-11T21:46:05.337Z,2.20
2023-04-11T21:48:32.457Z,2.40
2023-04-11T21:50:59.431Z,2.10
2023-04-11T21:53:26.853Z,3.13
2023-04-11T21:55:53.774Z,2.60
2023-04-11T21:58:29.150Z,2.90
2023-04-11T22:00:57.039Z,2.77
2023-04-11T22:03:24.445Z,2.83
2023-04-11T22:05:52.394Z,2.93
2023-04-11T22:08:22.414Z,3.10
2023-04-11T22:10:50.695Z,3.07
2023-04-11T22:13:19.475Z,3.00
2023-04-11T22:16:05.283Z,2.90
2023-04-11T22:18:38.185Z,2.70
2023-04-11T22:21:09.174Z,3.07
2023-04-11T22:23:36.138Z,2.70
2023-04-11T22:26:03.153Z,2.67
2023-04-11T22:28:30.198Z,2.73
2023-04-11T22:30:57.828Z,3.10
2023-04-11T22:33:24.839Z,2.80
2023-04-11T22:35:53.589Z,2.70
2023-04-11T22:38:21.535Z,2.63
2023-04-11T22:40:48.467Z,2.83
2023-04-11T22:43:15.518Z,2.60
2023-04-11T22:45:43.041Z,2.93
2023-04-11T22:48:10.158Z,2.60
2023-04-11T22:50:37.368Z,2.60
2023-04-11T22:53:04.675Z,2.70
2023-04-11T22:55:35.628Z,2.70
2023-04-11T22:58:03.468Z,2.47
2023-04-11T23:00:31.483Z,2.40
2023-04-11T23:02:59.932Z,3.37
2023-04-11T23:05:27.049Z,2.53
2023-04-11T23:07:54.191Z,2.60
2023-04-11T23:10:21.369Z,2.30
2023-04-11T23:12:49.522Z,2.23
2023-04-11T23:15:17.383Z,2.33
2023-04-11T23:17:44.920Z,2.10
2023-04-11T23:20:13.804Z,2.40
2023-04-11T23:22:42.461Z,2.10
2023-04-11T23:25:10.979Z,2.43
2023-04-11T23:27:38.944Z,2.50
2023-04-11T23:30:07.508Z,1.87
2023-04-11T23:32:34.707Z,2.23
2023-04-11T23:35:03.071Z,2.10
2023-04-11T23:37:31.663Z,1.93
2023-04-11T23:39:59.633Z,2.37
2023-04-11T23:42:26.761Z,2.33
2023-04-11T23:44:53.831Z,2.47
2023-04-11T23:47:20.831Z,2.27
2023-04-11T23:49:47.817Z,2.07
2023-04-11T23:52:14.876Z,2.13
2023-04-11T23:54:41.793Z,2.57
2023-04-11T23:57:08.879Z,2.20
2023-04-11T23:59:36.225Z,1.83
